createdAt,value
2016-05-25T00:00:56.453Z,22.94
2016-05-25T00:01:56.613Z,23
2016-05-25T00:02:56.380Z,22.89
2016-05-25T00:03:56.243Z,22.99
2016-05-25T00:04:56.449Z,23
2016-05-25T00:05:56.420Z,22.92
2016-05-25T00:06:56.439Z,22.94
2016-05-25T00:07:56.425Z,22.89
2016-05-25T00:08:56.444Z,22.92
2016-05-25T00:09:56.447Z,22.89
2016-05-25T00:10:56.465Z,22.96
2016-05-25T00:11:56.468Z,22.94
2016-05-25T00:12:56.548Z,22.91
2016-05-25T00:13:56.785Z,22.96
2016-05-25T00:14:56.507Z,22.92
2016-05-25T00:15:56.493Z,22.94
2016-05-25T00:16:56.497Z,22.97
2016-05-25T00:17:56.765Z,22.94
2016-05-25T00:18:56.440Z,23
2016-05-25T00:19:56.582Z,22.94
2016-05-25T00:20:56.398Z,22.92
2016-05-25T00:21:56.760Z,22.92
2016-05-25T00:22:56.590Z,22.94
2016-05-25T00:23:56.625Z,22.91
2016-05-25T00:24:56.596Z,22.94
2016-05-25T00:25:56.459Z,22.92
2016-05-25T00:26:56.633Z,23
2016-05-25T00:27:56.464Z,22.97
2016-05-25T00:28:56.826Z,22.89
2016-05-25T00:29:56.782Z,22.94
2016-05-25T00:30:56.659Z,22.94
2016-05-25T00:31:56.740Z,22.91
2016-05-25T00:32:56.867Z,22.96
2016-05-25T00:33:56.667Z,22.91
2016-05-25T00:34:56.717Z,22.91
2016-05-25T00:35:56.672Z,22.91
2016-05-25T00:36:56.707Z,23.01
2016-05-25T00:37:56.959Z,22.92
2016-05-25T00:38:56.572Z,22.94
2016-05-25T00:39:56.731Z,22.89
2016-05-25T00:40:56.733Z,22.92
2016-05-25T00:41:56.580Z,22.94
2016-05-25T00:42:56.894Z,22.91
2016-05-25T00:43:56.835Z,22.92
2016-05-25T00:44:56.774Z,22.97
2016-05-25T00:45:56.793Z,22.91
2016-05-25T00:46:56.827Z,22.86
2016-05-25T00:47:56.799Z,22.94
2016-05-25T00:48:56.865Z,22.91
2016-05-25T00:49:56.835Z,22.97
2016-05-25T00:50:56.948Z,22.94
2016-05-25T00:51:56.684Z,22.92
2016-05-25T00:52:56.953Z,22.91
2016-05-25T00:53:56.862Z,22.94
2016-05-25T00:54:56.880Z,22.89
2016-05-25T00:55:56.899Z,22.91
2016-05-25T00:56:56.886Z,22.92
2016-05-25T00:57:56.888Z,22.96
2016-05-25T00:58:56.906Z,22.97
2016-05-25T00:59:56.925Z,22.89
2016-05-25T01:00:56.912Z,22.91
2016-05-25T01:01:57.414Z,22.89
2016-05-25T01:02:56.948Z,22.92
2016-05-25T01:03:56.951Z,22.89
2016-05-25T01:04:56.969Z,22.92
2016-05-25T01:05:56.972Z,22.92
2016-05-25T01:06:57.005Z,22.94
2016-05-25T01:07:56.977Z,22.88
2016-05-25T01:08:56.996Z,22.91
2016-05-25T01:09:57.030Z,22.88
2016-05-25T01:10:57.017Z,22.91
2016-05-25T01:11:57.035Z,22.92
2016-05-25T01:12:57.054Z,22.92
2016-05-25T01:13:57.040Z,22.91
2016-05-25T01:14:57.074Z,22.89
2016-05-25T01:15:56.905Z,22.89
2016-05-25T01:16:57.501Z,22.91
2016-05-25T01:17:56.926Z,22.94
2016-05-25T01:18:57.116Z,22.86
2016-05-25T01:19:57.088Z,22.91
2016-05-25T01:20:57.121Z,22.92
2016-05-25T01:21:56.984Z,22.92
2016-05-25T01:22:57.143Z,22.94
2016-05-25T01:23:57.145Z,22.91
2016-05-25T01:24:57.242Z,22.92
2016-05-25T01:25:57.167Z,22.91
2016-05-25T01:26:57.184Z,22.86
2016-05-25T01:27:57.188Z,22.88
2016-05-25T01:28:57.190Z,22.91
2016-05-25T01:29:57.209Z,22.94
2016-05-25T01:30:57.195Z,22.92
2016-05-25T01:31:58.261Z,22.92
2016-05-25T01:32:57.233Z,22.91
2016-05-25T01:33:57.235Z,22.92
2016-05-25T01:34:57.238Z,22.92
2016-05-25T01:35:57.287Z,22.89
2016-05-25T01:36:57.102Z,22.88
2016-05-25T01:37:57.261Z,22.92
2016-05-25T01:38:57.279Z,22.89
2016-05-25T01:39:57.313Z,22.91
2016-05-25T01:40:57.286Z,22.92
2016-05-25T01:41:57.319Z,22.82
2016-05-25T01:42:57.338Z,22.92
2016-05-25T01:43:57.324Z,22.96
2016-05-25T01:44:57.327Z,22.92
2016-05-25T01:45:57.377Z,22.92
2016-05-25T01:46:57.348Z,22.94
2016-05-25T01:47:57.382Z,22.92
2016-05-25T01:48:57.229Z,22.89
2016-05-25T01:49:57.247Z,22.82
2016-05-25T01:50:57.374Z,22.81
2016-05-25T01:51:57.408Z,22.91
2016-05-25T01:52:57.240Z,22.96
2016-05-25T01:53:57.414Z,22.92
2016-05-25T01:54:57.417Z,22.89
2016-05-25T01:55:57.450Z,22.92
2016-05-25T01:56:57.453Z,22.88
2016-05-25T01:57:57.300Z,22.82
2016-05-25T01:58:57.302Z,22.84
2016-05-25T01:59:57.476Z,22.88
2016-05-25T02:00:57.479Z,22.91
2016-05-25T02:01:57.811Z,22.86
2016-05-25T02:02:57.517Z,22.84
2016-05-25T02:03:57.503Z,22.84
2016-05-25T02:04:57.522Z,22.81
2016-05-25T02:05:57.539Z,22.84
2016-05-25T02:06:57.527Z,22.92
2016-05-25T02:07:57.405Z,22.88
2016-05-25T02:08:57.407Z,22.86
2016-05-25T02:09:57.582Z,22.89
2016-05-25T02:10:57.569Z,22.82
2016-05-25T02:11:57.603Z,22.85
2016-05-25T02:12:57.606Z,22.89
2016-05-25T02:13:57.608Z,22.82
2016-05-25T02:14:57.596Z,22.84
2016-05-25T02:15:57.473Z,22.85
2016-05-25T02:16:58.007Z,22.82
2016-05-25T02:17:57.634Z,22.85
2016-05-25T02:18:57.512Z,22.84
2016-05-25T02:19:57.499Z,22.85
2016-05-25T02:20:57.674Z,22.86
2016-05-25T02:21:57.676Z,22.86
2016-05-25T02:22:57.695Z,22.86
2016-05-25T02:23:57.698Z,22.84
2016-05-25T02:24:57.560Z,22.81
2016-05-25T02:25:57.703Z,22.81
2016-05-25T02:26:57.581Z,22.86
2016-05-25T02:27:57.583Z,22.84
2016-05-25T02:28:57.726Z,22.86
2016-05-25T02:29:57.744Z,22.89
2016-05-25T02:30:57.622Z,22.82
2016-05-25T02:31:57.891Z,22.89
2016-05-25T02:32:57.644Z,22.86
2016-05-25T02:33:57.803Z,22.81
2016-05-25T02:34:57.821Z,22.85
2016-05-25T02:35:57.652Z,22.84
2016-05-25T02:36:57.826Z,22.81
2016-05-25T02:37:57.813Z,22.86
2016-05-25T02:38:57.691Z,22.79
2016-05-25T02:39:57.833Z,22.81
2016-05-25T02:40:57.697Z,22.81
2016-05-25T02:41:57.855Z,22.86
2016-05-25T02:42:57.889Z,22.84
2016-05-25T02:43:57.877Z,22.85
2016-05-25T02:44:57.926Z,22.84
2016-05-25T02:45:57.741Z,22.82
2016-05-25T02:46:58.213Z,22.82
2016-05-25T02:47:57.902Z,22.88
2016-05-25T02:48:57.937Z,22.82
2016-05-25T02:49:57.939Z,22.85
2016-05-25T02:50:57.957Z,22.81
2016-05-25T02:51:57.805Z,22.84
2016-05-25T02:52:57.822Z,22.85
2016-05-25T02:53:57.826Z,22.85
2016-05-25T02:54:58.015Z,22.78
2016-05-25T02:55:57.831Z,22.82
2016-05-25T02:56:58.021Z,22.86
2016-05-25T02:57:58.023Z,22.85
2016-05-25T02:58:58.026Z,22.85
2016-05-25T02:59:58.075Z,22.86
2016-05-25T03:00:57.890Z,22.81
2016-05-25T03:01:57.925Z,22.88
2016-05-25T03:02:58.271Z,22.85
2016-05-25T03:03:58.070Z,22.82
2016-05-25T03:04:57.933Z,22.84
2016-05-25T03:05:58.263Z,22.84
2016-05-25T03:06:58.095Z,22.84
2016-05-25T03:07:58.097Z,22.85
2016-05-25T03:08:57.944Z,22.78
2016-05-25T03:09:58.118Z,22.78
2016-05-25T03:10:58.136Z,22.71
2016-05-25T03:11:58.138Z,22.81
2016-05-25T03:12:58.173Z,22.79
2016-05-25T03:13:58.004Z,22.86
2016-05-25T03:14:58.194Z,22.76
2016-05-25T03:15:58.009Z,22.85
2016-05-25T03:16:58.168Z,22.84
2016-05-25T03:17:58.186Z,22.84
2016-05-25T03:18:58.221Z,22.75
2016-05-25T03:19:58.223Z,22.82
2016-05-25T03:20:58.226Z,22.82
2016-05-25T03:21:58.229Z,22.84
2016-05-25T03:22:58.122Z,22.85
2016-05-25T03:23:58.265Z,22.86
2016-05-25T03:24:58.268Z,22.81
2016-05-25T03:25:58.115Z,22.82
2016-05-25T03:26:58.290Z,22.82
2016-05-25T03:27:58.292Z,22.78
2016-05-25T03:28:58.310Z,22.86
2016-05-25T03:29:58.297Z,22.84
2016-05-25T03:30:58.315Z,22.78
2016-05-25T03:31:58.506Z,22.75
2016-05-25T03:32:58.320Z,22.79
2016-05-25T03:33:58.339Z,22.82
2016-05-25T03:34:58.373Z,22.84
2016-05-25T03:35:58.375Z,22.85
2016-05-25T03:36:58.362Z,22.82
2016-05-25T03:37:58.381Z,22.84
2016-05-25T03:38:58.383Z,22.79
2016-05-25T03:39:58.402Z,22.81
2016-05-25T03:40:58.405Z,22.82
2016-05-25T03:41:58.422Z,22.84
2016-05-25T03:42:58.425Z,22.84
2016-05-25T03:43:58.444Z,22.84
2016-05-25T03:44:58.446Z,22.84
2016-05-25T03:45:58.324Z,22.73
2016-05-25T03:46:58.733Z,22.79
2016-05-25T03:47:58.486Z,22.81
2016-05-25T03:48:58.489Z,22.85
2016-05-25T03:49:58.491Z,22.84
2016-05-25T03:50:58.510Z,22.75
2016-05-25T03:51:58.527Z,22.84
2016-05-25T03:52:58.530Z,22.79
2016-05-25T03:53:58.518Z,22.89
2016-05-25T03:54:58.379Z,22.85
2016-05-25T03:55:58.399Z,22.79
2016-05-25T03:56:58.557Z,22.76
2016-05-25T03:57:58.576Z,22.85
2016-05-25T03:58:58.579Z,22.82
2016-05-25T03:59:58.582Z,22.79
2016-05-25T04:00:58.599Z,22.85
2016-05-25T04:01:58.633Z,22.84
2016-05-25T04:02:58.605Z,22.85
2016-05-25T04:03:58.623Z,22.85
2016-05-25T04:04:58.501Z,22.84
2016-05-25T04:05:58.676Z,22.81
2016-05-25T04:06:58.647Z,22.84
2016-05-25T04:07:58.649Z,22.79
2016-05-25T04:08:58.684Z,22.76
2016-05-25T04:09:58.530Z,22.76
2016-05-25T04:10:59.001Z,22.78
2016-05-25T04:11:58.691Z,22.78
2016-05-25T04:12:58.725Z,22.86
2016-05-25T04:13:58.712Z,22.85
2016-05-25T04:14:58.715Z,22.82
2016-05-25T04:15:58.733Z,22.88
2016-05-25T04:16:59.549Z,22.84
2016-05-25T04:17:58.754Z,22.86
2016-05-25T04:18:58.757Z,22.86
2016-05-25T04:19:58.798Z,22.86
2016-05-25T04:20:58.669Z,22.86
2016-05-25T04:21:58.867Z,22.84
2016-05-25T04:22:59.144Z,22.82
2016-05-25T04:23:58.748Z,22.84
2016-05-25T04:24:58.962Z,22.82
2016-05-25T04:25:59.115Z,22.79
2016-05-25T04:26:58.985Z,22.82
2016-05-25T04:27:58.684Z,22.86
2016-05-25T04:28:59.023Z,22.86
2016-05-25T04:29:59.029Z,22.84
2016-05-25T04:30:59.129Z,22.86
2016-05-25T04:31:59.369Z,22.82
2016-05-25T04:32:59.093Z,22.82
2016-05-25T04:33:59.067Z,22.88
2016-05-25T04:34:59.118Z,22.85
2016-05-25T04:35:59.403Z,22.82
2016-05-25T04:36:59.111Z,22.84
2016-05-25T04:37:59.114Z,22.82
2016-05-25T04:38:59.275Z,22.79
2016-05-25T04:39:59.153Z,22.85
2016-05-25T04:40:59.202Z,22.84
2016-05-25T04:41:59.159Z,22.84
2016-05-25T04:42:59.271Z,22.82
2016-05-25T04:43:59.023Z,22.86
2016-05-25T04:44:59.184Z,22.85
2016-05-25T04:45:59.201Z,22.84
2016-05-25T04:46:59.579Z,22.79
2016-05-25T04:47:59.223Z,22.86
2016-05-25T04:48:59.209Z,22.85
2016-05-25T04:49:59.243Z,22.85
2016-05-25T04:50:59.356Z,22.82
2016-05-25T04:51:59.248Z,22.82
2016-05-25T04:52:59.486Z,22.84
2016-05-25T04:53:59.253Z,22.82
2016-05-25T04:54:59.617Z,22.84
2016-05-25T04:55:59.275Z,22.85
2016-05-25T04:56:59.293Z,22.82
2016-05-25T04:57:59.608Z,22.82
2016-05-25T04:58:59.330Z,22.85
2016-05-25T04:59:59.145Z,22.82
2016-05-25T05:00:59.695Z,22.92
2016-05-25T05:01:59.666Z,22.91
2016-05-25T05:02:59.357Z,22.84
2016-05-25T05:03:59.656Z,22.84
2016-05-25T05:04:59.377Z,22.89
2016-05-25T05:05:59.396Z,22.79
2016-05-25T05:06:59.382Z,22.85
2016-05-25T05:07:59.260Z,22.81
2016-05-25T05:08:59.732Z,22.92
2016-05-25T05:09:59.406Z,22.85
2016-05-25T05:10:59.706Z,22.84
2016-05-25T05:11:59.177Z,22.84
2016-05-25T05:12:59.759Z,22.84
2016-05-25T05:13:59.292Z,22.78
2016-05-25T05:14:59.670Z,22.84
2016-05-25T05:15:59.454Z,22.84
2016-05-25T05:16:59.504Z,22.88
2016-05-25T05:17:59.490Z,22.92
2016-05-25T05:18:59.806Z,22.91
2016-05-25T05:19:59.355Z,22.82
2016-05-25T05:20:59.531Z,22.84
2016-05-25T05:21:59.361Z,22.88
2016-05-25T05:22:59.598Z,22.92
2016-05-25T05:23:59.553Z,22.88
2016-05-25T05:24:59.634Z,22.84
2016-05-25T05:25:59.559Z,22.79
2016-05-25T05:26:59.890Z,22.84
2016-05-25T05:27:59.892Z,22.81
2016-05-25T05:28:59.598Z,22.86
2016-05-25T05:29:59.600Z,22.82
2016-05-25T05:30:59.822Z,22.91
2016-05-25T05:32:00.731Z,22.91
2016-05-25T05:32:59.703Z,22.91
2016-05-25T05:33:59.643Z,22.92
2016-05-25T05:34:59.802Z,22.91
2016-05-25T05:35:59.664Z,22.89
2016-05-25T05:36:59.667Z,22.91
2016-05-25T05:37:59.669Z,22.91
2016-05-25T05:38:59.735Z,22.92
2016-05-25T05:39:59.690Z,22.84
2016-05-25T05:40:59.693Z,22.78
2016-05-25T05:41:59.712Z,22.94
2016-05-25T05:42:59.432Z,22.91
2016-05-25T05:43:59.748Z,22.92
2016-05-25T05:44:59.734Z,22.78
2016-05-25T05:46:00.832Z,22.89
2016-05-25T05:47:00.318Z,22.85
2016-05-25T05:47:59.774Z,22.88
2016-05-25T05:48:59.762Z,22.89
2016-05-25T05:49:59.779Z,22.88
2016-05-25T05:51:00.486Z,22.91
2016-05-25T05:51:59.817Z,22.88
2016-05-25T05:52:59.819Z,22.92
2016-05-25T05:53:59.837Z,22.91
2016-05-25T05:54:59.667Z,22.86
2016-05-25T05:56:02.093Z,22.91
2016-05-25T05:56:59.861Z,22.91
2016-05-25T05:57:59.817Z,22.92
2016-05-25T05:58:59.867Z,22.89
2016-05-25T05:59:59.728Z,22.97
2016-05-25T06:01:00.466Z,22.91
2016-05-25T06:01:59.749Z,22.91
2016-05-25T06:03:00.064Z,22.92
2016-05-25T06:03:59.927Z,22.94
2016-05-25T06:04:59.929Z,22.92
2016-05-25T06:05:59.947Z,22.92
2016-05-25T06:06:59.857Z,22.91
2016-05-25T06:07:59.952Z,22.89
2016-05-25T06:08:59.956Z,22.89
2016-05-25T06:09:59.958Z,22.92
2016-05-25T06:10:59.977Z,22.94
2016-05-25T06:12:00.011Z,22.91
2016-05-25T06:13:00.045Z,22.89
2016-05-25T06:13:59.704Z,22.89
2016-05-25T06:15:00.065Z,22.85
2016-05-25T06:15:59.865Z,22.89
2016-05-25T06:17:00.102Z,22.94
2016-05-25T06:18:02.276Z,22.91
2016-05-25T06:19:00.077Z,22.89
2016-05-25T06:19:59.907Z,22.96
2016-05-25T06:21:00.081Z,22.91
2016-05-25T06:22:00.085Z,22.94
2016-05-25T06:23:00.072Z,22.91
2016-05-25T06:24:00.106Z,22.94
2016-05-25T06:25:00.109Z,22.91
2016-05-25T06:25:59.970Z,22.94
2016-05-25T06:27:00.114Z,22.97
2016-05-25T06:28:00.022Z,22.89
2016-05-25T06:29:00.150Z,22.86
2016-05-25T06:30:00.152Z,22.91
2016-05-25T06:31:00.171Z,22.91
2016-05-25T06:32:00.611Z,22.92
2016-05-25T06:33:00.052Z,22.89
2016-05-25T06:34:00.211Z,22.89
2016-05-25T06:35:00.214Z,22.94
2016-05-25T06:36:00.216Z,22.97
2016-05-25T06:37:00.235Z,22.94
2016-05-25T06:38:00.222Z,22.96
2016-05-25T06:39:00.255Z,22.92
2016-05-25T06:39:59.930Z,22.92
2016-05-25T06:41:00.120Z,22.92
2016-05-25T06:42:00.280Z,22.89
2016-05-25T06:43:00.391Z,22.94
2016-05-25T06:44:00.285Z,22.94
2016-05-25T06:45:00.146Z,22.92
2016-05-25T06:46:00.305Z,22.96
2016-05-25T06:47:00.261Z,22.97
2016-05-25T06:48:00.326Z,22.94
2016-05-25T06:49:00.345Z,22.97
2016-05-25T06:50:00.331Z,22.99
2016-05-25T06:51:00.351Z,22.96
2016-05-25T06:52:00.353Z,22.97
2016-05-25T06:53:00.370Z,23.01
2016-05-25T06:54:00.218Z,22.97
2016-05-25T06:55:00.408Z,22.99
2016-05-25T06:56:00.254Z,23.04
2016-05-25T06:57:00.445Z,23
2016-05-25T06:58:00.431Z,23
2016-05-25T06:59:00.434Z,23.01
2016-05-25T07:00:00.436Z,22.94
2016-05-25T07:01:00.424Z,23.07
2016-05-25T07:02:00.473Z,23.09
2016-05-25T07:03:02.258Z,22.97
2016-05-25T07:04:00.494Z,23
2016-05-25T07:05:00.497Z,23.03
2016-05-25T07:06:00.516Z,23.03
2016-05-25T07:07:00.486Z,23.04
2016-05-25T07:08:00.521Z,23.01
2016-05-25T07:09:00.524Z,23.03
2016-05-25T07:10:00.541Z,23.01
2016-05-25T07:11:00.529Z,23.01
2016-05-25T07:12:00.563Z,23.06
2016-05-25T07:13:00.549Z,23.03
2016-05-25T07:14:00.412Z,23.12
2016-05-25T07:15:00.587Z,23.06
2016-05-25T07:16:00.573Z,23.07
2016-05-25T07:17:00.592Z,23.09
2016-05-25T07:18:03.266Z,23.07
2016-05-25T07:19:00.629Z,23.07
2016-05-25T07:20:00.631Z,23.1
2016-05-25T07:21:00.634Z,23.09
2016-05-25T07:22:00.652Z,23.09
2016-05-25T07:23:03.140Z,23.1
2016-05-25T07:24:00.657Z,23.15
2016-05-25T07:25:00.520Z,23.12
2016-05-25T07:26:00.678Z,23.16
2016-05-25T07:27:00.525Z,23.19
2016-05-25T07:28:00.543Z,23.16
2016-05-25T07:29:00.545Z,23.21
2016-05-25T07:30:00.720Z,23.15
2016-05-25T07:31:00.723Z,23.19
2016-05-25T07:32:00.945Z,23.19
2016-05-25T07:33:00.760Z,22.6
2016-05-25T07:34:00.763Z,21.43
2016-05-25T07:35:00.766Z,21.34
2016-05-25T07:36:00.768Z,21.27
2016-05-25T07:37:00.787Z,20.74
2016-05-25T07:38:00.774Z,20.68
2016-05-25T07:39:00.620Z,20.22
2016-05-25T07:40:00.810Z,20.44
2016-05-25T07:41:00.641Z,20.6
2016-05-25T07:42:00.830Z,20.22
2016-05-25T07:43:00.818Z,20.01
2016-05-25T07:44:00.680Z,19.93
2016-05-25T07:45:00.699Z,20.1
2016-05-25T07:46:00.857Z,20.15
2016-05-25T07:47:00.876Z,20.51
2016-05-25T07:48:01.910Z,20.63
2016-05-25T07:49:00.724Z,19.5
2016-05-25T07:50:00.885Z,19.15
2016-05-25T07:51:00.699Z,19.56
2016-05-25T07:52:00.890Z,20.34
2016-05-25T07:53:02.814Z,20.83
2016-05-25T07:54:00.895Z,21.27
2016-05-25T07:55:00.741Z,21.58
2016-05-25T07:56:00.916Z,21.9
2016-05-25T07:57:00.606Z,22.08
2016-05-25T07:58:10.123Z,22.16
2016-05-25T07:59:00.768Z,22.3
2016-05-25T08:00:00.942Z,22.36
2016-05-25T08:01:00.944Z,22.39
2016-05-25T08:02:01.322Z,22.44
2016-05-25T08:03:01.950Z,22.45
2016-05-25T08:04:00.969Z,22.46
2016-05-25T08:05:00.987Z,22.52
2016-05-25T08:06:00.989Z,22.55
2016-05-25T08:07:01.008Z,22.63
2016-05-25T08:08:01.933Z,22.59
2016-05-25T08:09:00.997Z,22.66
2016-05-25T08:10:01.016Z,22.75
2016-05-25T08:11:01.019Z,22.7
2016-05-25T08:12:01.053Z,22.69
2016-05-25T08:13:01.039Z,22.67
2016-05-25T08:14:01.057Z,22.71
2016-05-25T08:15:01.060Z,22.75
2016-05-25T08:16:01.094Z,22.79
2016-05-25T08:17:01.441Z,22.86
2016-05-25T08:18:01.928Z,22.84
2016-05-25T08:19:01.087Z,22.84
2016-05-25T08:20:01.121Z,22.82
2016-05-25T08:21:00.968Z,22.89
2016-05-25T08:22:01.126Z,22.88
2016-05-25T08:23:00.988Z,22.96
2016-05-25T08:24:01.132Z,22.88
2016-05-25T08:25:01.165Z,22.89
2016-05-25T08:26:00.856Z,22.94
2016-05-25T08:27:01.186Z,22.94
2016-05-25T08:28:00.876Z,22.92
2016-05-25T08:29:00.895Z,22.97
2016-05-25T08:30:01.210Z,23.07
2016-05-25T08:31:01.212Z,22.99
2016-05-25T08:32:01.231Z,23.06
2016-05-25T08:33:01.422Z,23.01
2016-05-25T08:34:01.253Z,23.04
2016-05-25T08:35:01.239Z,23.07
2016-05-25T08:36:01.305Z,23.1
2016-05-25T08:37:01.275Z,23.06
2016-05-25T08:38:02.967Z,23.12
2016-05-25T08:39:01.266Z,23.16
2016-05-25T08:40:01.284Z,23.14
2016-05-25T08:41:01.318Z,23.15
2016-05-25T08:42:01.352Z,23.16
2016-05-25T08:43:01.699Z,23.24
2016-05-25T08:44:01.310Z,23.26
2016-05-25T08:45:01.344Z,23.25
2016-05-25T08:46:01.332Z,23.32
2016-05-25T08:47:01.380Z,23.34
2016-05-25T08:48:02.821Z,23.29
2016-05-25T08:49:01.386Z,23.28
2016-05-25T08:50:01.404Z,23.35
2016-05-25T08:51:01.407Z,23.4
2016-05-25T08:52:01.394Z,23.4
2016-05-25T08:53:02.835Z,23.34
2016-05-25T08:54:01.415Z,23.4
2016-05-25T08:55:01.449Z,23.41
2016-05-25T08:56:01.437Z,23.45
2016-05-25T08:57:01.454Z,23.5
2016-05-25T08:58:01.770Z,23.47
2016-05-25T08:59:01.476Z,23.41
2016-05-25T09:00:01.479Z,23.48
2016-05-25T09:01:01.481Z,23.53
2016-05-25T09:02:01.890Z,23.52
2016-05-25T09:03:01.534Z,23.56
2016-05-25T09:04:01.505Z,23.57
2016-05-25T09:05:01.538Z,23.57
2016-05-25T09:06:01.573Z,23.52
2016-05-25T09:07:01.559Z,23.57
2016-05-25T09:08:01.422Z,23.63
2016-05-25T09:09:01.550Z,23.71
2016-05-25T09:10:01.583Z,23.75
2016-05-25T09:11:01.602Z,23.75
2016-05-25T09:12:01.605Z,23.79
2016-05-25T09:13:01.608Z,23.82
2016-05-25T09:14:01.610Z,23.78
2016-05-25T09:15:01.628Z,23.84
2016-05-25T09:16:01.491Z,23.81
2016-05-25T09:17:01.666Z,23.87
2016-05-25T09:18:03.588Z,23.87
2016-05-25T09:19:01.499Z,23.87
2016-05-25T09:20:01.688Z,23.96
2016-05-25T09:21:01.676Z,23.93
2016-05-25T09:22:01.694Z,23.97
2016-05-25T09:23:01.713Z,23.96
2016-05-25T09:24:01.559Z,23.89
2016-05-25T09:25:01.546Z,23.87
2016-05-25T09:26:01.564Z,23.96
2016-05-25T09:27:01.754Z,23.94
2016-05-25T09:28:03.975Z,24.08
2016-05-25T09:29:01.759Z,23.93
2016-05-25T09:30:02.121Z,23.92
2016-05-25T09:31:01.781Z,23.99
2016-05-25T09:32:01.799Z,23.92
2016-05-25T09:33:01.661Z,23.93
2016-05-25T09:34:01.804Z,23.94
2016-05-25T09:35:01.807Z,24.04
2016-05-25T09:36:01.841Z,23.99
2016-05-25T09:37:02.140Z,24.07
2016-05-25T09:38:02.689Z,24.02
2016-05-25T09:39:01.850Z,24.03
2016-05-25T09:40:02.086Z,24.09
2016-05-25T09:41:01.885Z,24.07
2016-05-25T09:42:01.889Z,24.08
2016-05-25T09:43:03.704Z,24.03
2016-05-25T09:44:01.753Z,24.02
2016-05-25T09:45:01.927Z,24.09
2016-05-25T09:46:01.930Z,24.09
2016-05-25T09:47:01.933Z,24.03
2016-05-25T09:48:04.983Z,24.09
2016-05-25T09:49:01.938Z,24.09
2016-05-25T09:50:01.972Z,23.99
2016-05-25T09:51:01.819Z,24.02
2016-05-25T09:52:02.180Z,24.03
2016-05-25T09:53:01.996Z,24.03
2016-05-25T09:54:02.374Z,24
2016-05-25T09:55:02.017Z,23.99
2016-05-25T09:56:01.879Z,24.12
2016-05-25T09:57:02.147Z,24.02
2016-05-25T09:58:01.916Z,24.08
2016-05-25T09:59:02.059Z,24.14
2016-05-25T10:00:02.061Z,24.14
2016-05-25T10:01:02.142Z,24.12
2016-05-25T10:02:02.254Z,24.11
2016-05-25T10:03:02.117Z,24.18
2016-05-25T10:04:02.103Z,24.22
2016-05-25T10:05:02.137Z,24.15
2016-05-25T10:06:02.359Z,24.29
2016-05-25T10:07:02.142Z,24.15
2016-05-25T10:08:02.302Z,24.24
2016-05-25T10:09:02.164Z,24.15
2016-05-25T10:10:02.511Z,24.18
2016-05-25T10:11:02.028Z,24.19
2016-05-25T10:12:02.016Z,24.19
2016-05-25T10:13:02.237Z,24.29
2016-05-25T10:14:02.208Z,24.22
2016-05-25T10:15:02.555Z,24.15
2016-05-25T10:16:02.261Z,24.24
2016-05-25T10:17:02.092Z,24.21
2016-05-25T10:18:02.111Z,24.34
2016-05-25T10:19:02.410Z,24.15
2016-05-25T10:20:02.271Z,24.17
2016-05-25T10:21:02.305Z,24.21
2016-05-25T10:22:02.277Z,24.27
2016-05-25T10:23:02.593Z,24.21
2016-05-25T10:24:02.141Z,24.17
2016-05-25T10:25:02.270Z,24.19
2016-05-25T10:26:03.272Z,24.22
2016-05-25T10:27:02.603Z,24.24
2016-05-25T10:28:02.528Z,24.21
2016-05-25T10:29:02.359Z,24.18
2016-05-25T10:30:02.376Z,24.21
2016-05-25T10:31:04.317Z,24.15
2016-05-25T10:32:16.382Z,24.24
2016-05-25T10:33:02.385Z,24.24
2016-05-25T10:34:02.403Z,24.26
2016-05-25T10:35:02.296Z,24.15
2016-05-25T10:36:03.565Z,24.22
2016-05-25T10:37:02.426Z,24.21
2016-05-25T10:38:02.445Z,24.29
2016-05-25T10:39:02.323Z,24.27
2016-05-25T10:40:02.731Z,24.32
2016-05-25T10:41:05.312Z,24.26
2016-05-25T10:42:02.644Z,24.27
2016-05-25T10:43:02.490Z,24.22
2016-05-25T10:44:02.492Z,24.26
2016-05-25T10:45:02.807Z,24.24
2016-05-25T10:46:02.529Z,24.3
2016-05-25T10:47:02.578Z,24.29
2016-05-25T10:48:02.566Z,24.21
2016-05-25T10:49:02.850Z,24.22
2016-05-25T10:50:02.571Z,24.27
2016-05-25T10:51:02.902Z,24.26
2016-05-25T10:52:02.592Z,24.3
2016-05-25T10:53:02.595Z,24.22
2016-05-25T10:54:02.613Z,24.26
2016-05-25T10:55:02.600Z,24.24
2016-05-25T10:56:02.619Z,24.27
2016-05-25T10:57:02.465Z,24.26
2016-05-25T10:58:02.468Z,24.24
2016-05-25T10:59:02.798Z,24.32
2016-05-25T11:00:02.520Z,24.26
2016-05-25T11:01:02.929Z,24.27
2016-05-25T11:02:03.087Z,24.29
2016-05-25T11:03:02.716Z,24.32
2016-05-25T11:04:02.718Z,24.26
2016-05-25T11:05:02.768Z,24.22
2016-05-25T11:06:02.880Z,24.26
2016-05-25T11:07:02.726Z,24.22
2016-05-25T11:08:02.745Z,24.29
2016-05-25T11:09:02.637Z,24.26
2016-05-25T11:10:02.969Z,24.27
2016-05-25T11:11:02.768Z,24.27
2016-05-25T11:12:02.943Z,24.33
2016-05-25T11:13:02.633Z,24.29
2016-05-25T11:14:02.635Z,24.32
2016-05-25T11:15:02.810Z,24.29
2016-05-25T11:16:03.047Z,24.33
2016-05-25T11:17:02.831Z,24.37
2016-05-25T11:18:03.647Z,24.36
2016-05-25T11:19:02.884Z,24.36
2016-05-25T11:20:02.871Z,24.45
2016-05-25T11:21:02.716Z,24.4
2016-05-25T11:22:02.767Z,24.36
2016-05-25T11:23:04.847Z,24.33
2016-05-25T11:24:02.913Z,24.4
2016-05-25T11:25:02.915Z,24.4
2016-05-25T11:26:03.106Z,24.4
2016-05-25T11:27:02.921Z,24.37
2016-05-25T11:28:05.079Z,24.37
2016-05-25T11:29:02.957Z,24.44
2016-05-25T11:30:02.976Z,24.42
2016-05-25T11:31:02.821Z,24.4
2016-05-25T11:32:03.168Z,24.4
2016-05-25T11:33:06.234Z,24.4
2016-05-25T11:34:02.862Z,24.42
2016-05-25T11:35:03.021Z,24.45
2016-05-25T11:36:03.039Z,24.51
2016-05-25T11:37:03.041Z,24.39
2016-05-25T11:38:02.920Z,24.42
2016-05-25T11:39:03.047Z,24.36
2016-05-25T11:40:03.081Z,24.44
2016-05-25T11:41:03.068Z,24.42
2016-05-25T11:42:03.086Z,24.39
2016-05-25T11:43:03.120Z,24.39
2016-05-25T11:44:02.966Z,24.39
2016-05-25T11:45:03.109Z,24.46
2016-05-25T11:46:03.128Z,24.4
2016-05-25T11:47:03.490Z,24.44
2016-05-25T11:48:05.853Z,24.49
2016-05-25T11:49:03.183Z,24.46
2016-05-25T11:50:03.155Z,24.51
2016-05-25T11:51:03.172Z,24.54
2016-05-25T11:52:03.175Z,24.55
2016-05-25T11:53:03.210Z,24.55
2016-05-25T11:54:03.196Z,24.54
2016-05-25T11:55:03.074Z,24.58
2016-05-25T11:56:03.249Z,24.59
2016-05-25T11:57:02.923Z,24.58
2016-05-25T11:58:03.269Z,24.64
2016-05-25T11:59:03.272Z,24.66
2016-05-25T12:00:03.307Z,24.77
2016-05-25T12:01:03.277Z,24.74
2016-05-25T12:02:03.312Z,24.78
2016-05-25T12:03:03.174Z,24.69
2016-05-25T12:04:03.318Z,24.75
2016-05-25T12:05:03.320Z,24.71
2016-05-25T12:06:03.337Z,24.74
2016-05-25T12:07:03.325Z,24.7
2016-05-25T12:08:03.203Z,24.74
2016-05-25T12:09:03.378Z,24.7
2016-05-25T12:10:03.365Z,24.82
2016-05-25T12:11:03.398Z,24.87
2016-05-25T12:12:03.385Z,24.89
2016-05-25T12:13:03.404Z,24.78
2016-05-25T12:14:03.406Z,24.82
2016-05-25T12:15:03.425Z,24.71
2016-05-25T12:16:03.411Z,24.85
2016-05-25T12:17:03.508Z,24.75
2016-05-25T12:18:04.402Z,24.75
2016-05-25T12:19:03.467Z,24.77
2016-05-25T12:20:03.470Z,24.74
2016-05-25T12:21:03.488Z,24.74
2016-05-25T12:22:03.491Z,24.78
2016-05-25T12:23:03.525Z,24.77
2016-05-25T12:24:03.527Z,24.89
2016-05-25T12:25:03.514Z,24.83
2016-05-25T12:26:03.532Z,24.77
2016-05-25T12:27:03.394Z,24.8
2016-05-25T12:28:03.538Z,24.83
2016-05-25T12:29:03.572Z,24.78
2016-05-25T12:30:03.559Z,24.89
2016-05-25T12:31:03.577Z,24.77
2016-05-25T12:32:04.376Z,24.85
2016-05-25T12:33:03.629Z,24.85
2016-05-25T12:34:03.632Z,24.78
2016-05-25T12:35:03.619Z,24.75
2016-05-25T12:36:03.621Z,24.77
2016-05-25T12:37:03.656Z,24.71
2016-05-25T12:38:03.659Z,24.74
2016-05-25T12:39:03.662Z,24.75
2016-05-25T12:40:03.679Z,24.75
2016-05-25T12:41:03.667Z,24.8
2016-05-25T12:42:03.528Z,24.78
2016-05-25T12:43:04.859Z,24.83
2016-05-25T12:44:03.581Z,24.8
2016-05-25T12:45:03.725Z,24.86
2016-05-25T12:46:03.742Z,24.82
2016-05-25T12:47:03.948Z,24.78
2016-05-25T12:48:03.608Z,24.78
2016-05-25T12:49:03.798Z,24.92
2016-05-25T12:50:03.801Z,24.93
2016-05-25T12:51:03.786Z,24.92
2016-05-25T12:52:03.789Z,24.96
2016-05-25T12:53:04.371Z,25.04
2016-05-25T12:54:03.811Z,25.02
2016-05-25T12:55:03.830Z,25.08